sensor_id;sensor_type;location;lat;lon;timestamp;P1;durP1;ratioP1;P2;durP2;ratioP2
13185;SDS011;6658;53.080;7.428;2023-04-09T00:01:08;24.93;;;18.53;;
13185;SDS011;6658;53.080;7.428;2023-04-09T00:03:35;21.40;;;17.27;;
13185;SDS011;6658;53.080;7.428;2023-04-09T00:06:01;22.30;;;18.10;;
13185;SDS011;6658;53.080;7.428;2023-04-09T00:08:27;21.30;;;16.70;;
13185;SDS011;6658;53.080;7.428;2023-04-09T00:10:53;21.47;;;16.67;;
13185;SDS011;6658;53.080;7.428;2023-04-09T00:13:20;22.43;;;17.10;;
13185;SDS011;6658;53.080;7.428;2023-04-09T00:15:45;21.37;;;17.27;;
13185;SDS011;6658;53.080;7.428;2023-04-09T00:18:11;22.13;;;18.33;;
13185;SDS011;6658;53.080;7.428;2023-04-09T00:20:38;21.57;;;17.60;;
13185;SDS011;6658;53.080;7.428;2023-04-09T00:23:03;26.27;;;18.70;;
13185;SDS011;6658;53.080;7.428;2023-04-09T00:25:30;21.80;;;17.17;;
13185;SDS011;6658;53.080;7.428;2023-04-09T00:27:55;23.43;;;17.83;;
13185;SDS011;6658;53.080;7.428;2023-04-09T00:30:21;23.73;;;17.40;;
13185;SDS011;6658;53.080;7.428;2023-04-09T00:32:47;25.30;;;18.57;;
13185;SDS011;6658;53.080;7.428;2023-04-09T00:35:13;21.80;;;18.30;;
13185;SDS011;6658;53.080;7.428;2023-04-09T00:37:41;23.63;;;18.63;;
13185;SDS011;6658;53.080;7.428;2023-04-09T00:40:07;20.67;;;18.03;;
13185;SDS011;6658;53.080;7.428;2023-04-09T00:42:33;24.60;;;18.33;;
13185;SDS011;6658;53.080;7.428;2023-04-09T00:45:00;24.80;;;18.93;;
13185;SDS011;6658;53.080;7.428;2023-04-09T00:47:26;24.50;;;18.47;;
13185;SDS011;6658;53.080;7.428;2023-04-09T00:49:53;21.93;;;17.93;;
13185;SDS011;6658;53.080;7.428;2023-04-09T00:52:19;21.10;;;18.17;;
13185;SDS011;6658;53.080;7.428;2023-04-09T00:54:46;22.80;;;19.17;;
13185;SDS011;6658;53.080;7.428;2023-04-09T00:57:13;26.70;;;19.40;;
13185;SDS011;6658;53.080;7.428;2023-04-09T00:59:40;25.17;;;20.10;;
13185;SDS011;6658;53.080;7.428;2023-04-09T01:02:06;23.67;;;18.27;;
13185;SDS011;6658;53.080;7.428;2023-04-09T01:04:32;25.77;;;19.47;;
13185;SDS011;6658;53.080;7.428;2023-04-09T01:07:34;27.13;;;19.13;;
13185;SDS011;6658;53.080;7.428;2023-04-09T01:15:09;26.20;;;20.20;;
13185;SDS011;6658;53.080;7.428;2023-04-09T01:17:45;23.47;;;18.93;;
13185;SDS011;6658;53.080;7.428;2023-04-09T01:20:40;25.40;;;19.63;;
13185;SDS011;6658;53.080;7.428;2023-04-09T01:23:17;28.73;;;20.20;;
13185;SDS011;6658;53.080;7.428;2023-04-09T01:28:26;27.20;;;19.97;;
13185;SDS011;6658;53.080;7.428;2023-04-09T01:30:56;25.07;;;20.03;;
13185;SDS011;6658;53.080;7.428;2023-04-09T01:33:25;26.10;;;20.93;;
13185;SDS011;6658;53.080;7.428;2023-04-09T01:35:53;25.43;;;21.40;;
13185;SDS011;6658;53.080;7.428;2023-04-09T01:38:20;28.47;;;22.13;;
13185;SDS011;6658;53.080;7.428;2023-04-09T01:40:47;33.10;;;23.20;;
13185;SDS011;6658;53.080;7.428;2023-04-09T01:43:14;33.20;;;23.30;;
13185;SDS011;6658;53.080;7.428;2023-04-09T01:45:42;29.83;;;23.20;;
13185;SDS011;6658;53.080;7.428;2023-04-09T01:48:10;29.50;;;21.87;;
13185;SDS011;6658;53.080;7.428;2023-04-09T01:50:40;29.77;;;22.77;;
13185;SDS011;6658;53.080;7.428;2023-04-09T01:53:06;28.63;;;22.77;;
13185;SDS011;6658;53.080;7.428;2023-04-09T01:55:32;32.47;;;22.93;;
13185;SDS011;6658;53.080;7.428;2023-04-09T01:57:58;32.90;;;23.37;;
13185;SDS011;6658;53.080;7.428;2023-04-09T02:00:25;30.47;;;22.37;;
13185;SDS011;6658;53.080;7.428;2023-04-09T02:03:15;29.73;;;23.33;;
13185;SDS011;6658;53.080;7.428;2023-04-09T02:06:08;33.73;;;22.33;;
13185;SDS011;6658;53.080;7.428;2023-04-09T02:08:40;28.00;;;23.20;;
13185;SDS011;6658;53.080;7.428;2023-04-09T02:11:10;30.90;;;23.07;;
13185;SDS011;6658;53.080;7.428;2023-04-09T02:13:37;27.13;;;21.77;;
13185;SDS011;6658;53.080;7.428;2023-04-09T02:16:05;30.40;;;22.07;;
13185;SDS011;6658;53.080;7.428;2023-04-09T02:18:33;30.33;;;23.77;;
13185;SDS011;6658;53.080;7.428;2023-04-09T02:20:59;29.37;;;23.57;;
13185;SDS011;6658;53.080;7.428;2023-04-09T02:23:25;30.27;;;22.53;;
13185;SDS011;6658;53.080;7.428;2023-04-09T02:25:51;31.97;;;23.20;;
13185;SDS011;6658;53.080;7.428;2023-04-09T02:28:18;33.87;;;24.30;;
13185;SDS011;6658;53.080;7.428;2023-04-09T02:30:43;30.60;;;22.30;;
13185;SDS011;6658;53.080;7.428;2023-04-09T02:33:09;30.67;;;23.33;;
13185;SDS011;6658;53.080;7.428;2023-04-09T02:35:35;31.57;;;23.93;;
13185;SDS011;6658;53.080;7.428;2023-04-09T02:38:01;32.10;;;24.93;;
13185;SDS011;6658;53.080;7.428;2023-04-09T02:40:27;32.23;;;24.93;;
13185;SDS011;6658;53.080;7.428;2023-04-09T02:42:53;32.10;;;23.50;;
13185;SDS011;6658;53.080;7.428;2023-04-09T02:45:19;33.07;;;24.87;;
13185;SDS011;6658;53.080;7.428;2023-04-09T02:47:45;31.47;;;23.90;;
13185;SDS011;6658;53.080;7.428;2023-04-09T02:50:10;32.33;;;24.30;;
13185;SDS011;6658;53.080;7.428;2023-04-09T02:52:36;27.00;;;22.23;;
13185;SDS011;6658;53.080;7.428;2023-04-09T02:55:02;29.67;;;22.53;;
13185;SDS011;6658;53.080;7.428;2023-04-09T02:57:28;31.90;;;24.33;;
13185;SDS011;6658;53.080;7.428;2023-04-09T02:59:54;29.70;;;23.43;;
13185;SDS011;6658;53.080;7.428;2023-04-09T03:02:19;32.10;;;24.50;;
13185;SDS011;6658;53.080;7.428;2023-04-09T03:04:45;31.80;;;23.80;;
13185;SDS011;6658;53.080;7.428;2023-04-09T03:07:11;34.07;;;24.07;;
13185;SDS011;6658;53.080;7.428;2023-04-09T03:09:36;28.10;;;22.67;;
13185;SDS011;6658;53.080;7.428;2023-04-09T03:12:02;29.30;;;24.10;;
13185;SDS011;6658;53.080;7.428;2023-04-09T03:14:28;32.23;;;25.40;;
13185;SDS011;6658;53.080;7.428;2023-04-09T03:16:53;32.03;;;23.23;;
13185;SDS011;6658;53.080;7.428;2023-04-09T03:19:19;29.93;;;23.30;;
13185;SDS011;6658;53.080;7.428;2023-04-09T03:21:45;33.07;;;24.20;;
13185;SDS011;6658;53.080;7.428;2023-04-09T03:24:13;31.77;;;24.33;;
13185;SDS011;6658;53.080;7.428;2023-04-09T03:26:39;29.53;;;23.10;;
13185;SDS011;6658;53.080;7.428;2023-04-09T03:29:05;30.93;;;24.43;;
13185;SDS011;6658;53.080;7.428;2023-04-09T03:31:31;30.10;;;23.83;;
13185;SDS011;6658;53.080;7.428;2023-04-09T03:33:57;30.47;;;24.07;;
13185;SDS011;6658;53.080;7.428;2023-04-09T03:36:22;31.33;;;24.80;;
13185;SDS011;6658;53.080;7.428;2023-04-09T03:38:48;32.47;;;23.83;;
13185;SDS011;6658;53.080;7.428;2023-04-09T03:41:14;30.13;;;24.00;;
13185;SDS011;6658;53.080;7.428;2023-04-09T03:43:40;30.83;;;24.27;;
13185;SDS011;6658;53.080;7.428;2023-04-09T03:46:15;31.43;;;24.63;;
13185;SDS011;6658;53.080;7.428;2023-04-09T03:48:42;32.73;;;24.97;;
13185;SDS011;6658;53.080;7.428;2023-04-09T03:51:15;34.03;;;24.27;;
13185;SDS011;6658;53.080;7.428;2023-04-09T03:53:41;32.57;;;24.37;;
13185;SDS011;6658;53.080;7.428;2023-04-09T03:56:07;35.00;;;26.90;;
13185;SDS011;6658;53.080;7.428;2023-04-09T03:58:33;32.53;;;25.43;;
13185;SDS011;6658;53.080;7.428;2023-04-09T04:00:59;32.47;;;25.47;;
13185;SDS011;6658;53.080;7.428;2023-04-09T04:03:26;33.63;;;25.80;;
13185;SDS011;6658;53.080;7.428;2023-04-09T04:05:51;32.60;;;26.17;;
13185;SDS011;6658;53.080;7.428;2023-04-09T04:08:17;35.47;;;25.90;;
13185;SDS011;6658;53.080;7.428;2023-04-09T04:10:43;34.10;;;26.40;;
13185;SDS011;6658;53.080;7.428;2023-04-09T04:13:09;36.50;;;26.67;;
13185;SDS011;6658;53.080;7.428;2023-04-09T04:15:41;34.23;;;25.67;;
13185;SDS011;6658;53.080;7.428;2023-04-09T04:18:07;35.23;;;27.17;;
13185;SDS011;6658;53.080;7.428;2023-04-09T04:20:33;36.63;;;26.70;;
13185;SDS011;6658;53.080;7.428;2023-04-09T04:23:00;35.77;;;27.60;;
13185;SDS011;6658;53.080;7.428;2023-04-09T04:25:26;33.97;;;25.50;;
13185;SDS011;6658;53.080;7.428;2023-04-09T04:27:51;36.53;;;26.67;;
13185;SDS011;6658;53.080;7.428;2023-04-09T04:30:19;36.70;;;27.83;;
13185;SDS011;6658;53.080;7.428;2023-04-09T04:32:45;35.20;;;26.33;;
13185;SDS011;6658;53.080;7.428;2023-04-09T04:35:11;34.23;;;25.77;;
13185;SDS011;6658;53.080;7.428;2023-04-09T04:37:37;33.97;;;26.40;;
13185;SDS011;6658;53.080;7.428;2023-04-09T04:40:04;33.60;;;25.23;;
13185;SDS011;6658;53.080;7.428;2023-04-09T04:42:31;31.50;;;24.90;;
13185;SDS011;6658;53.080;7.428;2023-04-09T04:44:57;34.17;;;26.53;;
13185;SDS011;6658;53.080;7.428;2023-04-09T04:47:23;29.23;;;24.47;;
13185;SDS011;6658;53.080;7.428;2023-04-09T04:49:48;29.43;;;24.60;;
13185;SDS011;6658;53.080;7.428;2023-04-09T04:52:14;33.03;;;24.83;;
13185;SDS011;6658;53.080;7.428;2023-04-09T04:54:40;30.43;;;25.53;;
13185;SDS011;6658;53.080;7.428;2023-04-09T04:57:05;32.03;;;25.07;;
13185;SDS011;6658;53.080;7.428;2023-04-09T04:59:31;35.27;;;25.20;;
13185;SDS011;6658;53.080;7.428;2023-04-09T05:01:57;31.90;;;23.97;;
13185;SDS011;6658;53.080;7.428;2023-04-09T05:04:23;32.30;;;25.30;;
13185;SDS011;6658;53.080;7.428;2023-04-09T05:06:48;29.83;;;24.60;;
13185;SDS011;6658;53.080;7.428;2023-04-09T05:09:14;31.07;;;23.97;;
13185;SDS011;6658;53.080;7.428;2023-04-09T05:11:40;30.53;;;24.90;;
13185;SDS011;6658;53.080;7.428;2023-04-09T05:14:06;35.80;;;24.87;;
13185;SDS011;6658;53.080;7.428;2023-04-09T05:16:31;33.97;;;26.63;;
13185;SDS011;6658;53.080;7.428;2023-04-09T05:18:57;34.73;;;24.67;;
13185;SDS011;6658;53.080;7.428;2023-04-09T05:21:23;37.23;;;27.87;;
13185;SDS011;6658;53.080;7.428;2023-04-09T05:23:48;34.00;;;25.57;;
13185;SDS011;6658;53.080;7.428;2023-04-09T05:26:14;34.63;;;26.23;;
13185;SDS011;6658;53.080;7.428;2023-04-09T05:28:40;33.10;;;27.40;;
13185;SDS011;6658;53.080;7.428;2023-04-09T05:31:05;32.00;;;26.00;;
13185;SDS011;6658;53.080;7.428;2023-04-09T05:33:36;34.60;;;27.53;;
13185;SDS011;6658;53.080;7.428;2023-04-09T05:36:05;33.20;;;25.80;;
13185;SDS011;6658;53.080;7.428;2023-04-09T05:38:31;39.60;;;26.97;;
13185;SDS011;6658;53.080;7.428;2023-04-09T05:40:58;35.90;;;27.30;;
13185;SDS011;6658;53.080;7.428;2023-04-09T05:43:24;32.03;;;26.70;;
13185;SDS011;6658;53.080;7.428;2023-04-09T05:45:50;34.23;;;26.93;;
13185;SDS011;6658;53.080;7.428;2023-04-09T05:48:15;33.63;;;26.40;;
13185;SDS011;6658;53.080;7.428;2023-04-09T05:50:47;32.47;;;24.03;;
13185;SDS011;6658;53.080;7.428;2023-04-09T05:53:14;29.90;;;24.77;;
13185;SDS011;6658;53.080;7.428;2023-04-09T05:55:40;31.70;;;24.83;;
13185;SDS011;6658;53.080;7.428;2023-04-09T05:58:06;28.30;;;22.93;;
13185;SDS011;6658;53.080;7.428;2023-04-09T06:00:31;26.80;;;21.50;;
13185;SDS011;6658;53.080;7.428;2023-04-09T06:02:57;28.87;;;22.30;;
13185;SDS011;6658;53.080;7.428;2023-04-09T06:05:23;29.50;;;22.63;;
13185;SDS011;6658;53.080;7.428;2023-04-09T06:07:49;29.60;;;22.73;;
13185;SDS011;6658;53.080;7.428;2023-04-09T06:10:14;26.47;;;20.37;;
13185;SDS011;6658;53.080;7.428;2023-04-09T06:12:40;25.23;;;21.20;;
13185;SDS011;6658;53.080;7.428;2023-04-09T06:15:06;24.93;;;20.77;;
13185;SDS011;6658;53.080;7.428;2023-04-09T06:17:32;25.10;;;20.20;;
13185;SDS011;6658;53.080;7.428;2023-04-09T06:19:57;26.87;;;20.93;;
13185;SDS011;6658;53.080;7.428;2023-04-09T06:22:23;26.80;;;20.43;;
13185;SDS011;6658;53.080;7.428;2023-04-09T06:24:49;22.70;;;19.23;;
13185;SDS011;6658;53.080;7.428;2023-04-09T06:27:15;24.33;;;18.77;;
13185;SDS011;6658;53.080;7.428;2023-04-09T06:29:42;21.90;;;17.30;;
13185;SDS011;6658;53.080;7.428;2023-04-09T06:32:08;23.27;;;18.17;;
13185;SDS011;6658;53.080;7.428;2023-04-09T06:34:34;21.17;;;16.83;;
13185;SDS011;6658;53.080;7.428;2023-04-09T06:37:00;20.23;;;17.00;;
13185;SDS011;6658;53.080;7.428;2023-04-09T06:39:25;19.47;;;16.03;;
13185;SDS011;6658;53.080;7.428;2023-04-09T06:41:52;17.97;;;15.33;;
13185;SDS011;6658;53.080;7.428;2023-04-09T06:44:17;19.10;;;15.23;;
13185;SDS011;6658;53.080;7.428;2023-04-09T06:46:44;20.27;;;16.40;;
13185;SDS011;6658;53.080;7.428;2023-04-09T06:49:10;21.20;;;16.37;;
13185;SDS011;6658;53.080;7.428;2023-04-09T06:51:36;16.93;;;14.93;;
13185;SDS011;6658;53.080;7.428;2023-04-09T06:54:01;19.13;;;15.43;;
13185;SDS011;6658;53.080;7.428;2023-04-09T06:56:27;17.57;;;14.70;;
13185;SDS011;6658;53.080;7.428;2023-04-09T06:58:53;16.20;;;14.33;;
13185;SDS011;6658;53.080;7.428;2023-04-09T07:01:18;20.20;;;14.97;;
13185;SDS011;6658;53.080;7.428;2023-04-09T07:03:45;17.57;;;14.63;;
13185;SDS011;6658;53.080;7.428;2023-04-09T07:06:11;16.13;;;13.97;;
13185;SDS011;6658;53.080;7.428;2023-04-09T07:08:36;16.80;;;14.17;;
13185;SDS011;6658;53.080;7.428;2023-04-09T07:11:02;15.67;;;13.50;;
13185;SDS011;6658;53.080;7.428;2023-04-09T07:13:28;15.20;;;12.80;;
13185;SDS011;6658;53.080;7.428;2023-04-09T07:15:53;15.67;;;13.23;;
13185;SDS011;6658;53.080;7.428;2023-04-09T07:18:19;16.93;;;11.93;;
13185;SDS011;6658;53.080;7.428;2023-04-09T07:20:45;15.37;;;12.57;;
13185;SDS011;6658;53.080;7.428;2023-04-09T07:23:10;14.73;;;12.73;;
13185;SDS011;6658;53.080;7.428;2023-04-09T07:25:36;14.17;;;12.30;;
13185;SDS011;6658;53.080;7.428;2023-04-09T07:28:02;15.27;;;12.17;;
13185;SDS011;6658;53.080;7.428;2023-04-09T07:30:28;14.43;;;12.20;;
13185;SDS011;6658;53.080;7.428;2023-04-09T07:32:54;15.23;;;12.37;;
13185;SDS011;6658;53.080;7.428;2023-04-09T07:35:20;13.67;;;11.67;;
13185;SDS011;6658;53.080;7.428;2023-04-09T07:37:45;14.30;;;11.53;;
13185;SDS011;6658;53.080;7.428;2023-04-09T07:40:14;13.13;;;11.53;;
13185;SDS011;6658;53.080;7.428;2023-04-09T07:42:40;12.73;;;10.90;;
13185;SDS011;6658;53.080;7.428;2023-04-09T07:45:06;13.13;;;11.13;;
13185;SDS011;6658;53.080;7.428;2023-04-09T07:47:32;12.73;;;10.67;;
13185;SDS011;6658;53.080;7.428;2023-04-09T07:49:58;12.13;;;10.83;;
13185;SDS011;6658;53.080;7.428;2023-04-09T07:52:23;13.00;;;10.90;;
13185;SDS011;6658;53.080;7.428;2023-04-09T07:54:49;13.13;;;11.73;;
13185;SDS011;6658;53.080;7.428;2023-04-09T07:57:15;14.40;;;11.57;;
13185;SDS011;6658;53.080;7.428;2023-04-09T07:59:41;12.87;;;10.77;;
13185;SDS011;6658;53.080;7.428;2023-04-09T08:02:07;14.37;;;11.50;;
13185;SDS011;6658;53.080;7.428;2023-04-09T08:04:32;14.03;;;11.40;;
13185;SDS011;6658;53.080;7.428;2023-04-09T08:06:58;13.33;;;11.73;;
13185;SDS011;6658;53.080;7.428;2023-04-09T08:09:24;13.80;;;11.10;;
13185;SDS011;6658;53.080;7.428;2023-04-09T08:11:49;12.87;;;11.10;;
13185;SDS011;6658;53.080;7.428;2023-04-09T08:14:16;14.43;;;11.33;;
13185;SDS011;6658;53.080;7.428;2023-04-09T08:16:42;13.57;;;10.87;;
13185;SDS011;6658;53.080;7.428;2023-04-09T08:19:10;13.57;;;11.17;;
13185;SDS011;6658;53.080;7.428;2023-04-09T08:21:39;12.90;;;11.40;;
13185;SDS011;6658;53.080;7.428;2023-04-09T08:24:07;13.43;;;11.60;;
13185;SDS011;6658;53.080;7.428;2023-04-09T08:26:35;14.60;;;11.77;;
13185;SDS011;6658;53.080;7.428;2023-04-09T08:29:01;13.30;;;11.63;;
13185;SDS011;6658;53.080;7.428;2023-04-09T08:31:27;13.30;;;11.90;;
13185;SDS011;6658;53.080;7.428;2023-04-09T08:33:53;13.90;;;11.47;;
13185;SDS011;6658;53.080;7.428;2023-04-09T08:36:19;14.83;;;11.80;;
13185;SDS011;6658;53.080;7.428;2023-04-09T08:38:45;13.43;;;11.87;;
13185;SDS011;6658;53.080;7.428;2023-04-09T08:43:45;14.10;;;12.17;;
13185;SDS011;6658;53.080;7.428;2023-04-09T08:46:12;13.30;;;11.83;;
13185;SDS011;6658;53.080;7.428;2023-04-09T08:48:42;14.10;;;11.80;;
13185;SDS011;6658;53.080;7.428;2023-04-09T08:51:19;14.23;;;12.27;;
13185;SDS011;6658;53.080;7.428;2023-04-09T08:53:51;15.17;;;11.80;;
13185;SDS011;6658;53.080;7.428;2023-04-09T08:56:20;12.87;;;11.13;;
13185;SDS011;6658;53.080;7.428;2023-04-09T08:58:46;14.63;;;11.80;;
13185;SDS011;6658;53.080;7.428;2023-04-09T09:01:24;12.67;;;10.97;;
13185;SDS011;6658;53.080;7.428;2023-04-09T09:04:04;12.23;;;10.93;;
13185;SDS011;6658;53.080;7.428;2023-04-09T09:06:31;12.43;;;10.87;;
13185;SDS011;6658;53.080;7.428;2023-04-09T09:09:05;15.17;;;10.57;;
13185;SDS011;6658;53.080;7.428;2023-04-09T09:11:37;13.10;;;11.07;;
13185;SDS011;6658;53.080;7.428;2023-04-09T09:14:09;14.57;;;12.20;;
13185;SDS011;6658;53.080;7.428;2023-04-09T09:16:40;14.77;;;12.20;;
13185;SDS011;6658;53.080;7.428;2023-04-09T09:19:08;14.10;;;11.67;;
13185;SDS011;6658;53.080;7.428;2023-04-09T09:21:34;13.57;;;11.57;;
13185;SDS011;6658;53.080;7.428;2023-04-09T09:24:01;14.97;;;12.43;;
13185;SDS011;6658;53.080;7.428;2023-04-09T09:26:40;14.20;;;11.20;;
13185;SDS011;6658;53.080;7.428;2023-04-09T09:29:06;14.93;;;13.33;;
13185;SDS011;6658;53.080;7.428;2023-04-09T09:31:32;14.33;;;12.30;;
13185;SDS011;6658;53.080;7.428;2023-04-09T09:34:13;13.93;;;12.33;;
13185;SDS011;6658;53.080;7.428;2023-04-09T09:36:43;14.80;;;12.53;;
13185;SDS011;6658;53.080;7.428;2023-04-09T09:39:10;14.40;;;11.90;;
13185;SDS011;6658;53.080;7.428;2023-04-09T09:41:40;15.93;;;13.17;;
13185;SDS011;6658;53.080;7.428;2023-04-09T09:44:06;13.90;;;12.07;;
13185;SDS011;6658;53.080;7.428;2023-04-09T09:46:34;15.00;;;12.30;;
13185;SDS011;6658;53.080;7.428;2023-04-09T09:49:02;15.07;;;12.67;;
13185;SDS011;6658;53.080;7.428;2023-04-09T09:51:28;16.97;;;13.33;;
13185;SDS011;6658;53.080;7.428;2023-04-09T09:53:56;15.67;;;13.70;;
13185;SDS011;6658;53.080;7.428;2023-04-09T09:56:23;15.67;;;13.70;;
13185;SDS011;6658;53.080;7.428;2023-04-09T09:59:06;15.03;;;13.43;;
13185;SDS011;6658;53.080;7.428;2023-04-09T10:01:37;14.97;;;13.13;;
13185;SDS011;6658;53.080;7.428;2023-04-09T10:04:05;16.13;;;13.30;;
13185;SDS011;6658;53.080;7.428;2023-04-09T10:06:37;17.50;;;15.23;;
13185;SDS011;6658;53.080;7.428;2023-04-09T10:09:13;16.10;;;14.37;;
13185;SDS011;6658;53.080;7.428;2023-04-09T10:11:40;18.73;;;14.67;;
13185;SDS011;6658;53.080;7.428;2023-04-09T10:14:11;17.37;;;14.47;;
13185;SDS011;6658;53.080;7.428;2023-04-09T10:16:38;18.53;;;15.33;;
13185;SDS011;6658;53.080;7.428;2023-04-09T10:19:06;19.30;;;15.77;;
13185;SDS011;6658;53.080;7.428;2023-04-09T10:24:18;17.57;;;14.40;;
13185;SDS011;6658;53.080;7.428;2023-04-09T10:26:43;17.70;;;14.10;;
13185;SDS011;6658;53.080;7.428;2023-04-09T10:29:10;15.03;;;13.07;;
13185;SDS011;6658;53.080;7.428;2023-04-09T10:31:51;16.47;;;14.40;;
13185;SDS011;6658;53.080;7.428;2023-04-09T10:34:36;18.30;;;15.37;;
13185;SDS011;6658;53.080;7.428;2023-04-09T10:37:09;16.60;;;13.97;;
13185;SDS011;6658;53.080;7.428;2023-04-09T10:39:40;16.83;;;14.63;;
13185;SDS011;6658;53.080;7.428;2023-04-09T10:42:22;16.60;;;14.30;;
13185;SDS011;6658;53.080;7.428;2023-04-09T10:45:10;17.63;;;15.10;;
13185;SDS011;6658;53.080;7.428;2023-04-09T10:47:41;16.50;;;14.60;;
13185;SDS011;6658;53.080;7.428;2023-04-09T10:50:14;22.20;;;19.20;;
13185;SDS011;6658;53.080;7.428;2023-04-09T10:52:52;15.30;;;13.60;;
13185;SDS011;6658;53.080;7.428;2023-04-09T10:55:37;20.37;;;17.87;;
13185;SDS011;6658;53.080;7.428;2023-04-09T10:58:04;18.33;;;15.53;;
13185;SDS011;6658;53.080;7.428;2023-04-09T11:00:38;28.20;;;25.10;;
13185;SDS011;6658;53.080;7.428;2023-04-09T11:03:09;18.30;;;16.33;;
13185;SDS011;6658;53.080;7.428;2023-04-09T11:05:41;15.23;;;12.63;;
13185;SDS011;6658;53.080;7.428;2023-04-09T11:08:12;16.00;;;14.00;;
13185;SDS011;6658;53.080;7.428;2023-04-09T11:10:39;15.20;;;12.93;;
13185;SDS011;6658;53.080;7.428;2023-04-09T11:13:09;16.37;;;13.60;;
13185;SDS011;6658;53.080;7.428;2023-04-09T11:15:37;15.30;;;13.10;;
13185;SDS011;6658;53.080;7.428;2023-04-09T11:18:03;17.83;;;12.30;;
13185;SDS011;6658;53.080;7.428;2023-04-09T11:20:32;15.50;;;13.00;;
13185;SDS011;6658;53.080;7.428;2023-04-09T11:22:58;15.50;;;13.23;;
13185;SDS011;6658;53.080;7.428;2023-04-09T11:25:29;12.47;;;11.20;;
13185;SDS011;6658;53.080;7.428;2023-04-09T11:27:55;12.57;;;11.27;;
13185;SDS011;6658;53.080;7.428;2023-04-09T11:30:21;12.93;;;11.23;;
13185;SDS011;6658;53.080;7.428;2023-04-09T11:32:47;12.87;;;10.80;;
13185;SDS011;6658;53.080;7.428;2023-04-09T11:35:15;12.13;;;10.83;;
13185;SDS011;6658;53.080;7.428;2023-04-09T11:37:42;11.03;;;9.93;;
13185;SDS011;6658;53.080;7.428;2023-04-09T11:42:49;11.53;;;10.23;;
13185;SDS011;6658;53.080;7.428;2023-04-09T11:45:16;11.07;;;9.97;;
13185;SDS011;6658;53.080;7.428;2023-04-09T11:47:44;13.53;;;11.67;;
13185;SDS011;6658;53.080;7.428;2023-04-09T11:50:11;13.23;;;11.83;;
13185;SDS011;6658;53.080;7.428;2023-04-09T11:52:38;11.43;;;9.97;;
13185;SDS011;6658;53.080;7.428;2023-04-09T11:55:05;11.87;;;10.50;;
13185;SDS011;6658;53.080;7.428;2023-04-09T11:57:44;10.87;;;9.77;;
13185;SDS011;6658;53.080;7.428;2023-04-09T12:00:14;12.03;;;10.73;;
13185;SDS011;6658;53.080;7.428;2023-04-09T12:02:41;11.33;;;10.03;;
13185;SDS011;6658;53.080;7.428;2023-04-09T12:05:24;11.93;;;10.23;;
13185;SDS011;6658;53.080;7.428;2023-04-09T12:07:56;12.97;;;10.83;;
13185;SDS011;6658;53.080;7.428;2023-04-09T12:10:31;13.20;;;11.20;;
13185;SDS011;6658;53.080;7.428;2023-04-09T12:13:07;14.17;;;10.80;;
13185;SDS011;6658;53.080;7.428;2023-04-09T12:15:37;11.17;;;9.93;;
13185;SDS011;6658;53.080;7.428;2023-04-09T12:18:11;10.33;;;9.10;;
13185;SDS011;6658;53.080;7.428;2023-04-09T12:20:41;10.40;;;8.60;;
13185;SDS011;6658;53.080;7.428;2023-04-09T12:23:08;10.10;;;8.70;;
13185;SDS011;6658;53.080;7.428;2023-04-09T12:25:36;11.30;;;9.20;;
13185;SDS011;6658;53.080;7.428;2023-04-09T12:28:04;9.80;;;8.30;;
13185;SDS011;6658;53.080;7.428;2023-04-09T12:30:31;9.07;;;8.17;;
13185;SDS011;6658;53.080;7.428;2023-04-09T12:32:57;9.97;;;8.00;;
13185;SDS011;6658;53.080;7.428;2023-04-09T12:35:23;10.00;;;8.60;;
13185;SDS011;6658;53.080;7.428;2023-04-09T12:37:49;8.50;;;7.27;;
13185;SDS011;6658;53.080;7.428;2023-04-09T12:40:15;9.63;;;8.30;;
13185;SDS011;6658;53.080;7.428;2023-04-09T12:42:42;9.77;;;8.33;;
13185;SDS011;6658;53.080;7.428;2023-04-09T12:45:09;8.53;;;7.63;;
13185;SDS011;6658;53.080;7.428;2023-04-09T12:47:36;9.90;;;8.30;;
13185;SDS011;6658;53.080;7.428;2023-04-09T12:50:03;10.27;;;8.20;;
13185;SDS011;6658;53.080;7.428;2023-04-09T12:52:30;8.73;;;7.20;;
13185;SDS011;6658;53.080;7.428;2023-04-09T12:54:56;8.60;;;7.53;;
13185;SDS011;6658;53.080;7.428;2023-04-09T12:57:21;9.83;;;7.00;;
13185;SDS011;6658;53.080;7.428;2023-04-09T12:59:47;7.97;;;6.87;;
13185;SDS011;6658;53.080;7.428;2023-04-09T13:02:13;8.83;;;7.40;;
13185;SDS011;6658;53.080;7.428;2023-04-09T13:04:38;8.23;;;6.90;;
13185;SDS011;6658;53.080;7.428;2023-04-09T13:07:05;9.03;;;7.50;;
13185;SDS011;6658;53.080;7.428;2023-04-09T13:09:31;8.27;;;7.23;;
13185;SDS011;6658;53.080;7.428;2023-04-09T13:11:57;8.53;;;7.23;;
13185;SDS011;6658;53.080;7.428;2023-04-09T13:14:22;7.47;;;6.67;;
13185;SDS011;6658;53.080;7.428;2023-04-09T13:16:48;8.03;;;7.07;;
13185;SDS011;6658;53.080;7.428;2023-04-09T13:19:14;8.50;;;6.90;;
13185;SDS011;6658;53.080;7.428;2023-04-09T13:21:39;8.80;;;7.30;;
13185;SDS011;6658;53.080;7.428;2023-04-09T13:24:06;7.53;;;6.57;;
13185;SDS011;6658;53.080;7.428;2023-04-09T13:26:31;8.17;;;7.27;;
13185;SDS011;6658;53.080;7.428;2023-04-09T13:28:57;8.47;;;7.60;;
13185;SDS011;6658;53.080;7.428;2023-04-09T13:31:23;7.43;;;6.43;;
13185;SDS011;6658;53.080;7.428;2023-04-09T13:33:49;8.37;;;7.27;;
13185;SDS011;6658;53.080;7.428;2023-04-09T13:36:15;7.87;;;7.07;;
13185;SDS011;6658;53.080;7.428;2023-04-09T13:38:41;8.13;;;7.33;;
13185;SDS011;6658;53.080;7.428;2023-04-09T13:41:06;9.37;;;7.90;;
13185;SDS011;6658;53.080;7.428;2023-04-09T13:43:32;8.97;;;7.83;;
13185;SDS011;6658;53.080;7.428;2023-04-09T13:45:58;9.60;;;7.87;;
13185;SDS011;6658;53.080;7.428;2023-04-09T13:48:24;9.93;;;7.27;;
13185;SDS011;6658;53.080;7.428;2023-04-09T13:50:49;9.73;;;7.73;;
13185;SDS011;6658;53.080;7.428;2023-04-09T13:53:15;10.17;;;8.13;;
13185;SDS011;6658;53.080;7.428;2023-04-09T13:55:44;8.77;;;7.10;;
13185;SDS011;6658;53.080;7.428;2023-04-09T13:58:10;8.47;;;7.57;;
13185;SDS011;6658;53.080;7.428;2023-04-09T14:00:36;10.83;;;7.40;;
13185;SDS011;6658;53.080;7.428;2023-04-09T14:03:02;9.67;;;7.80;;
13185;SDS011;6658;53.080;7.428;2023-04-09T14:05:29;9.90;;;7.83;;
13185;SDS011;6658;53.080;7.428;2023-04-09T14:07:56;8.20;;;7.23;;
13185;SDS011;6658;53.080;7.428;2023-04-09T14:10:22;8.90;;;7.60;;
13185;SDS011;6658;53.080;7.428;2023-04-09T14:12:48;9.17;;;7.37;;
13185;SDS011;6658;53.080;7.428;2023-04-09T14:15:13;10.80;;;8.13;;
13185;SDS011;6658;53.080;7.428;2023-04-09T14:17:39;9.83;;;7.60;;
13185;SDS011;6658;53.080;7.428;2023-04-09T14:20:05;9.53;;;7.30;;
13185;SDS011;6658;53.080;7.428;2023-04-09T14:22:31;8.43;;;6.77;;
13185;SDS011;6658;53.080;7.428;2023-04-09T14:24:57;7.93;;;7.07;;
13185;SDS011;6658;53.080;7.428;2023-04-09T14:27:23;9.57;;;7.27;;
13185;SDS011;6658;53.080;7.428;2023-04-09T14:29:50;7.53;;;6.73;;
13185;SDS011;6658;53.080;7.428;2023-04-09T14:32:16;8.20;;;6.97;;
13185;SDS011;6658;53.080;7.428;2023-04-09T14:34:42;7.57;;;6.47;;
13185;SDS011;6658;53.080;7.428;2023-04-09T14:37:07;7.60;;;6.80;;
13185;SDS011;6658;53.080;7.428;2023-04-09T14:39:33;8.20;;;7.30;;
13185;SDS011;6658;53.080;7.428;2023-04-09T14:41:59;7.93;;;6.77;;
13185;SDS011;6658;53.080;7.428;2023-04-09T14:44:25;7.43;;;6.50;;
13185;SDS011;6658;53.080;7.428;2023-04-09T14:46:51;9.47;;;7.80;;
13185;SDS011;6658;53.080;7.428;2023-04-09T14:49:19;8.87;;;7.27;;
13185;SDS011;6658;53.080;7.428;2023-04-09T14:51:45;7.93;;;6.60;;
13185;SDS011;6658;53.080;7.428;2023-04-09T14:54:11;7.70;;;6.30;;
13185;SDS011;6658;53.080;7.428;2023-04-09T14:56:36;7.63;;;6.77;;